Portada
METAR-TAF:

METAR-TAF

Aeroports :

Taipei, Taiwan

latitud: 25-04N, longitud: 121-33E, altitud: 6 m

Observació

L'informe es va fer fa 23 minuts, a les 12:00 UTC
Vent 8 kt del Est
Temperatura 17°C
Humitat 77%
Pressió 1022 hPa
Visibilitat 10 km o més
Escasses núvols a una alçada de 4000 ft

METAR: RCSS 211200Z 09008KT 9999 FEW040 17/13 Q1022 NOSIG RMK A3020

Hora: 20:23 (12:23 UTC)

Pronòstic

L'informe es va fer fa 1 hora i 23 minuts, a les 11:00 UTC
Pronòstic vàlid del 21 a les 12 UTC al 22 a les 12 UTC
Vent 10 kt del Est
Visibilitat 10 km o més
Escasses núvols a una alçada de 3000 ft
Evolucionant progressivament
l' 21 a les 14 UTC al 21 a les 16 UTC
Vent 5 kt del Est

TAF: RCSS 211100Z 2112/2212 08010KT 9999 FEW030 BECMG 2114/2116 10005KT

Observacions i pronòstics meteorològics de més de 4000 aeroports (METAR i TAF).

Les estacions disponibles són els punts grocs i vermells al mapa.

Posi el ratolí al punt desitjat per veure el nom de l'estació.

Feu clic per veure les observacions i els pronòstics meteorològics.

Per canviar el mapa: feu clic els botons verds amb una creu de color negre per apropar; al botó verd amb un guió per allunyar la imatge; o en les fletxes verdes per a mapes adjacents.


METAR-TAF: